sensor_id;sensor_type;location;lat;lon;timestamp;P1;durP1;ratioP1;P2;durP2;ratioP2
37943;SDS011;23767;42.024;23.086;2023-02-19T00:01:22;20.23;;;12.57;;
37943;SDS011;23767;42.024;23.086;2023-02-19T00:03:57;21.70;;;12.30;;
37943;SDS011;23767;42.024;23.086;2023-02-19T00:06:24;19.67;;;11.23;;
37943;SDS011;23767;42.024;23.086;2023-02-19T00:08:50;21.20;;;12.17;;
37943;SDS011;23767;42.024;23.086;2023-02-19T00:11:17;17.27;;;11.80;;
37943;SDS011;23767;42.024;23.086;2023-02-19T00:13:44;23.33;;;13.60;;
37943;SDS011;23767;42.024;23.086;2023-02-19T00:16:12;25.13;;;15.77;;
37943;SDS011;23767;42.024;23.086;2023-02-19T00:18:39;27.93;;;16.73;;
37943;SDS011;23767;42.024;23.086;2023-02-19T00:21:05;22.07;;;12.60;;
37943;SDS011;23767;42.024;23.086;2023-02-19T00:23:31;23.53;;;14.90;;
37943;SDS011;23767;42.024;23.086;2023-02-19T00:26:01;22.37;;;13.23;;
37943;SDS011;23767;42.024;23.086;2023-02-19T00:28:27;28.30;;;15.77;;
37943;SDS011;23767;42.024;23.086;2023-02-19T00:30:53;20.77;;;12.83;;
37943;SDS011;23767;42.024;23.086;2023-02-19T00:33:19;13.23;;;7.13;;
37943;SDS011;23767;42.024;23.086;2023-02-19T00:35:45;12.43;;;6.87;;
37943;SDS011;23767;42.024;23.086;2023-02-19T00:38:12;12.37;;;7.33;;
37943;SDS011;23767;42.024;23.086;2023-02-19T00:40:38;12.00;;;6.97;;
37943;SDS011;23767;42.024;23.086;2023-02-19T00:43:04;12.80;;;7.50;;
37943;SDS011;23767;42.024;23.086;2023-02-19T00:45:30;14.90;;;8.87;;
37943;SDS011;23767;42.024;23.086;2023-02-19T00:47:59;22.70;;;14.73;;
37943;SDS011;23767;42.024;23.086;2023-02-19T00:50:25;14.47;;;8.23;;
37943;SDS011;23767;42.024;23.086;2023-02-19T00:52:51;15.27;;;9.30;;
37943;SDS011;23767;42.024;23.086;2023-02-19T00:55:17;30.10;;;15.93;;
37943;SDS011;23767;42.024;23.086;2023-02-19T00:57:44;26.77;;;17.03;;
37943;SDS011;23767;42.024;23.086;2023-02-19T01:00:10;28.00;;;18.00;;
37943;SDS011;23767;42.024;23.086;2023-02-19T01:02:36;27.87;;;17.03;;
37943;SDS011;23767;42.024;23.086;2023-02-19T01:05:02;31.97;;;18.17;;
37943;SDS011;23767;42.024;23.086;2023-02-19T01:07:28;25.70;;;17.07;;
37943;SDS011;23767;42.024;23.086;2023-02-19T01:09:54;24.70;;;16.83;;
37943;SDS011;23767;42.024;23.086;2023-02-19T01:12:20;23.10;;;15.20;;
37943;SDS011;23767;42.024;23.086;2023-02-19T01:14:48;23.90;;;16.30;;
37943;SDS011;23767;42.024;23.086;2023-02-19T01:17:14;22.73;;;15.30;;
37943;SDS011;23767;42.024;23.086;2023-02-19T01:19:40;23.63;;;14.97;;
37943;SDS011;23767;42.024;23.086;2023-02-19T01:22:06;26.60;;;15.30;;
37943;SDS011;23767;42.024;23.086;2023-02-19T01:24:32;23.67;;;14.43;;
37943;SDS011;23767;42.024;23.086;2023-02-19T01:26:58;22.57;;;15.43;;
37943;SDS011;23767;42.024;23.086;2023-02-19T01:29:24;21.37;;;13.97;;
37943;SDS011;23767;42.024;23.086;2023-02-19T01:31:50;22.17;;;14.77;;
37943;SDS011;23767;42.024;23.086;2023-02-19T01:34:16;22.10;;;14.33;;
37943;SDS011;23767;42.024;23.086;2023-02-19T01:36:42;23.53;;;14.50;;
37943;SDS011;23767;42.024;23.086;2023-02-19T01:39:09;24.10;;;14.13;;
37943;SDS011;23767;42.024;23.086;2023-02-19T01:41:35;24.37;;;15.07;;
37943;SDS011;23767;42.024;23.086;2023-02-19T01:46:32;20.63;;;13.37;;
37943;SDS011;23767;42.024;23.086;2023-02-19T01:49:01;22.80;;;14.43;;
37943;SDS011;23767;42.024;23.086;2023-02-19T01:51:28;22.60;;;15.37;;
37943;SDS011;23767;42.024;23.086;2023-02-19T01:53:56;18.97;;;13.33;;
37943;SDS011;23767;42.024;23.086;2023-02-19T01:56:24;22.20;;;13.80;;
37943;SDS011;23767;42.024;23.086;2023-02-19T01:58:52;18.63;;;12.30;;
37943;SDS011;23767;42.024;23.086;2023-02-19T02:01:19;20.00;;;13.03;;
37943;SDS011;23767;42.024;23.086;2023-02-19T02:03:45;18.70;;;13.00;;
37943;SDS011;23767;42.024;23.086;2023-02-19T02:08:41;18.87;;;12.87;;
37943;SDS011;23767;42.024;23.086;2023-02-19T02:11:26;20.13;;;14.20;;
37943;SDS011;23767;42.024;23.086;2023-02-19T02:13:54;20.67;;;13.53;;
37943;SDS011;23767;42.024;23.086;2023-02-19T02:16:35;18.97;;;12.80;;
37943;SDS011;23767;42.024;23.086;2023-02-19T02:21:46;16.05;;;9.65;;
37943;SDS011;23767;42.024;23.086;2023-02-19T02:26:59;23.13;;;13.40;;
37943;SDS011;23767;42.024;23.086;2023-02-19T02:32:08;20.80;;;12.20;;
37943;SDS011;23767;42.024;23.086;2023-02-19T02:34:38;30.00;;;14.23;;
37943;SDS011;23767;42.024;23.086;2023-02-19T02:37:06;30.40;;;18.17;;
37943;SDS011;23767;42.024;23.086;2023-02-19T02:39:34;31.40;;;18.30;;
37943;SDS011;23767;42.024;23.086;2023-02-19T02:42:01;28.00;;;17.93;;
37943;SDS011;23767;42.024;23.086;2023-02-19T02:44:46;24.47;;;15.50;;
37943;SDS011;23767;42.024;23.086;2023-02-19T02:47:32;24.50;;;14.77;;
37943;SDS011;23767;42.024;23.086;2023-02-19T02:50:09;21.00;;;13.47;;
37943;SDS011;23767;42.024;23.086;2023-02-19T02:52:37;22.23;;;13.80;;
37943;SDS011;23767;42.024;23.086;2023-02-19T02:55:22;23.57;;;15.03;;
37943;SDS011;23767;42.024;23.086;2023-02-19T02:57:49;26.43;;;16.60;;
37943;SDS011;23767;42.024;23.086;2023-02-19T03:00:15;26.90;;;17.03;;
37943;SDS011;23767;42.024;23.086;2023-02-19T03:02:41;29.30;;;17.47;;
37943;SDS011;23767;42.024;23.086;2023-02-19T03:05:10;28.70;;;18.17;;
37943;SDS011;23767;42.024;23.086;2023-02-19T03:08:12;25.37;;;17.93;;
37943;SDS011;23767;42.024;23.086;2023-02-19T03:13:16;31.50;;;19.63;;
37943;SDS011;23767;42.024;23.086;2023-02-19T03:16:14;34.00;;;20.67;;
37943;SDS011;23767;42.024;23.086;2023-02-19T03:19:00;31.13;;;20.83;;
37943;SDS011;23767;42.024;23.086;2023-02-19T03:21:43;31.75;;;20.20;;
37943;SDS011;23767;42.024;23.086;2023-02-19T03:24:10;30.77;;;19.20;;
37943;SDS011;23767;42.024;23.086;2023-02-19T03:26:56;32.77;;;21.10;;
37943;SDS011;23767;42.024;23.086;2023-02-19T03:29:23;29.73;;;19.30;;
37943;SDS011;23767;42.024;23.086;2023-02-19T03:31:55;32.10;;;19.90;;
37943;SDS011;23767;42.024;23.086;2023-02-19T03:34:28;30.40;;;20.48;;
37943;SDS011;23767;42.024;23.086;2023-02-19T03:36:57;32.73;;;20.90;;
37943;SDS011;23767;42.024;23.086;2023-02-19T03:39:25;26.70;;;18.60;;
37943;SDS011;23767;42.024;23.086;2023-02-19T03:46:50;20.70;;;13.07;;
37943;SDS011;23767;42.024;23.086;2023-02-19T03:49:33;22.47;;;14.60;;
37943;SDS011;23767;42.024;23.086;2023-02-19T03:52:17;20.27;;;13.63;;
37943;SDS011;23767;42.024;23.086;2023-02-19T03:54:49;18.03;;;11.13;;
37943;SDS011;23767;42.024;23.086;2023-02-19T03:59:51;18.93;;;13.13;;
37943;SDS011;23767;42.024;23.086;2023-02-19T04:02:23;21.17;;;14.00;;
37943;SDS011;23767;42.024;23.086;2023-02-19T04:04:55;23.97;;;15.57;;
37943;SDS011;23767;42.024;23.086;2023-02-19T04:07:23;25.30;;;16.30;;
37943;SDS011;23767;42.024;23.086;2023-02-19T04:09:50;26.93;;;16.93;;
37943;SDS011;23767;42.024;23.086;2023-02-19T04:12:16;26.37;;;17.37;;
37943;SDS011;23767;42.024;23.086;2023-02-19T04:14:45;27.13;;;17.30;;
37943;SDS011;23767;42.024;23.086;2023-02-19T04:17:21;28.47;;;18.60;;
37943;SDS011;23767;42.024;23.086;2023-02-19T04:19:49;27.17;;;17.93;;
37943;SDS011;23767;42.024;23.086;2023-02-19T04:22:15;29.37;;;18.73;;
37943;SDS011;23767;42.024;23.086;2023-02-19T04:24:43;24.60;;;16.20;;
37943;SDS011;23767;42.024;23.086;2023-02-19T04:27:12;24.43;;;16.03;;
37943;SDS011;23767;42.024;23.086;2023-02-19T04:29:39;26.97;;;16.87;;
37943;SDS011;23767;42.024;23.086;2023-02-19T04:32:05;25.30;;;17.47;;
37943;SDS011;23767;42.024;23.086;2023-02-19T04:34:31;24.93;;;16.83;;
37943;SDS011;23767;42.024;23.086;2023-02-19T04:36:57;29.43;;;17.30;;
37943;SDS011;23767;42.024;23.086;2023-02-19T04:39:24;26.70;;;16.90;;
37943;SDS011;23767;42.024;23.086;2023-02-19T04:41:50;28.47;;;18.03;;
37943;SDS011;23767;42.024;23.086;2023-02-19T04:44:16;27.40;;;17.70;;
37943;SDS011;23767;42.024;23.086;2023-02-19T04:46:42;25.10;;;16.77;;
37943;SDS011;23767;42.024;23.086;2023-02-19T04:49:08;28.77;;;18.53;;
37943;SDS011;23767;42.024;23.086;2023-02-19T04:51:34;26.63;;;17.50;;
37943;SDS011;23767;42.024;23.086;2023-02-19T04:54:00;26.60;;;17.73;;
37943;SDS011;23767;42.024;23.086;2023-02-19T04:56:26;26.07;;;18.10;;
37943;SDS011;23767;42.024;23.086;2023-02-19T04:58:52;25.67;;;16.23;;
37943;SDS011;23767;42.024;23.086;2023-02-19T05:01:18;22.37;;;15.73;;
37943;SDS011;23767;42.024;23.086;2023-02-19T05:03:44;22.60;;;14.47;;
37943;SDS011;23767;42.024;23.086;2023-02-19T05:06:11;21.83;;;14.43;;
37943;SDS011;23767;42.024;23.086;2023-02-19T05:08:37;22.03;;;15.40;;
37943;SDS011;23767;42.024;23.086;2023-02-19T05:11:04;22.87;;;15.23;;
37943;SDS011;23767;42.024;23.086;2023-02-19T05:13:31;26.83;;;17.13;;
37943;SDS011;23767;42.024;23.086;2023-02-19T05:16:02;25.50;;;15.40;;
37943;SDS011;23767;42.024;23.086;2023-02-19T05:18:29;20.60;;;14.43;;
37943;SDS011;23767;42.024;23.086;2023-02-19T05:20:55;22.53;;;14.43;;
37943;SDS011;23767;42.024;23.086;2023-02-19T05:23:22;19.97;;;13.40;;
37943;SDS011;23767;42.024;23.086;2023-02-19T05:25:48;20.90;;;13.23;;
37943;SDS011;23767;42.024;23.086;2023-02-19T05:28:14;23.40;;;16.57;;
37943;SDS011;23767;42.024;23.086;2023-02-19T05:30:49;18.73;;;12.03;;
37943;SDS011;23767;42.024;23.086;2023-02-19T05:33:17;19.73;;;13.47;;
37943;SDS011;23767;42.024;23.086;2023-02-19T05:35:44;17.20;;;12.03;;
37943;SDS011;23767;42.024;23.086;2023-02-19T05:38:10;19.57;;;12.87;;
37943;SDS011;23767;42.024;23.086;2023-02-19T05:40:36;19.57;;;13.43;;
37943;SDS011;23767;42.024;23.086;2023-02-19T05:43:03;20.17;;;13.50;;
37943;SDS011;23767;42.024;23.086;2023-02-19T05:45:29;18.83;;;13.20;;
37943;SDS011;23767;42.024;23.086;2023-02-19T05:47:55;21.30;;;14.77;;
37943;SDS011;23767;42.024;23.086;2023-02-19T05:50:21;27.23;;;17.13;;
37943;SDS011;23767;42.024;23.086;2023-02-19T05:52:47;20.33;;;13.83;;
37943;SDS011;23767;42.024;23.086;2023-02-19T05:55:13;22.93;;;14.27;;
37943;SDS011;23767;42.024;23.086;2023-02-19T05:57:43;25.90;;;17.03;;
37943;SDS011;23767;42.024;23.086;2023-02-19T06:00:11;21.83;;;15.90;;
37943;SDS011;23767;42.024;23.086;2023-02-19T06:02:37;29.37;;;21.17;;
37943;SDS011;23767;42.024;23.086;2023-02-19T06:05:04;25.37;;;17.63;;
37943;SDS011;23767;42.024;23.086;2023-02-19T06:07:31;31.53;;;21.07;;
37943;SDS011;23767;42.024;23.086;2023-02-19T06:09:57;34.97;;;22.13;;
37943;SDS011;23767;42.024;23.086;2023-02-19T06:12:23;38.60;;;25.40;;
37943;SDS011;23767;42.024;23.086;2023-02-19T06:14:49;41.73;;;26.27;;
37943;SDS011;23767;42.024;23.086;2023-02-19T06:17:15;43.53;;;27.13;;
37943;SDS011;23767;42.024;23.086;2023-02-19T06:19:41;41.93;;;26.17;;
37943;SDS011;23767;42.024;23.086;2023-02-19T06:22:07;40.47;;;26.07;;
37943;SDS011;23767;42.024;23.086;2023-02-19T06:24:34;38.57;;;26.47;;
37943;SDS011;23767;42.024;23.086;2023-02-19T06:27:04;36.77;;;26.07;;
37943;SDS011;23767;42.024;23.086;2023-02-19T06:29:30;34.37;;;23.23;;
37943;SDS011;23767;42.024;23.086;2023-02-19T06:31:57;37.00;;;23.50;;
37943;SDS011;23767;42.024;23.086;2023-02-19T06:34:23;47.90;;;28.40;;
37943;SDS011;23767;42.024;23.086;2023-02-19T06:36:50;51.83;;;33.77;;
37943;SDS011;23767;42.024;23.086;2023-02-19T06:39:16;51.23;;;32.10;;
37943;SDS011;23767;42.024;23.086;2023-02-19T06:41:42;52.77;;;34.43;;
37943;SDS011;23767;42.024;23.086;2023-02-19T06:44:08;57.83;;;36.13;;
37943;SDS011;23767;42.024;23.086;2023-02-19T06:46:34;58.10;;;36.87;;
37943;SDS011;23767;42.024;23.086;2023-02-19T06:49:02;55.07;;;36.17;;
37943;SDS011;23767;42.024;23.086;2023-02-19T06:51:28;59.10;;;36.60;;
37943;SDS011;23767;42.024;23.086;2023-02-19T06:53:56;55.50;;;35.20;;
37943;SDS011;23767;42.024;23.086;2023-02-19T06:58:49;52.40;;;35.87;;
37943;SDS011;23767;42.024;23.086;2023-02-19T07:01:15;54.03;;;37.83;;
37943;SDS011;23767;42.024;23.086;2023-02-19T07:03:41;53.67;;;35.43;;
37943;SDS011;23767;42.024;23.086;2023-02-19T07:06:07;53.33;;;34.53;;
37943;SDS011;23767;42.024;23.086;2023-02-19T07:08:33;52.70;;;33.83;;
37943;SDS011;23767;42.024;23.086;2023-02-19T07:10:59;50.73;;;33.00;;
37943;SDS011;23767;42.024;23.086;2023-02-19T07:13:26;46.63;;;31.63;;
37943;SDS011;23767;42.024;23.086;2023-02-19T07:15:59;46.27;;;31.67;;
37943;SDS011;23767;42.024;23.086;2023-02-19T07:18:26;41.60;;;29.43;;
37943;SDS011;23767;42.024;23.086;2023-02-19T07:20:52;40.73;;;28.83;;
37943;SDS011;23767;42.024;23.086;2023-02-19T07:23:18;43.30;;;29.33;;
37943;SDS011;23767;42.024;23.086;2023-02-19T07:25:44;46.43;;;30.13;;
37943;SDS011;23767;42.024;23.086;2023-02-19T07:28:10;42.00;;;29.07;;
37943;SDS011;23767;42.024;23.086;2023-02-19T07:30:36;41.03;;;28.43;;
37943;SDS011;23767;42.024;23.086;2023-02-19T07:33:02;40.17;;;29.30;;
37943;SDS011;23767;42.024;23.086;2023-02-19T07:35:28;43.93;;;29.37;;
37943;SDS011;23767;42.024;23.086;2023-02-19T07:37:54;41.67;;;28.70;;
37943;SDS011;23767;42.024;23.086;2023-02-19T07:40:21;41.50;;;28.87;;
37943;SDS011;23767;42.024;23.086;2023-02-19T07:42:47;44.00;;;28.83;;
37943;SDS011;23767;42.024;23.086;2023-02-19T07:45:13;42.70;;;29.23;;
37943;SDS011;23767;42.024;23.086;2023-02-19T07:47:39;40.77;;;28.20;;
37943;SDS011;23767;42.024;23.086;2023-02-19T07:50:05;41.50;;;27.87;;
37943;SDS011;23767;42.024;23.086;2023-02-19T07:52:32;42.78;;;28.30;;
37943;SDS011;23767;42.024;23.086;2023-02-19T07:54:58;40.67;;;27.97;;
37943;SDS011;23767;42.024;23.086;2023-02-19T07:57:26;43.08;;;30.00;;
37943;SDS011;23767;42.024;23.086;2023-02-19T07:59:53;39.33;;;28.10;;
37943;SDS011;23767;42.024;23.086;2023-02-19T08:02:19;41.60;;;27.53;;
37943;SDS011;23767;42.024;23.086;2023-02-19T08:05:04;38.22;;;25.20;;
37943;SDS011;23767;42.024;23.086;2023-02-19T08:07:31;39.10;;;25.38;;
37943;SDS011;23767;42.024;23.086;2023-02-19T08:09:57;35.42;;;24.05;;
37943;SDS011;23767;42.024;23.086;2023-02-19T08:12:41;36.13;;;24.15;;
37943;SDS011;23767;42.024;23.086;2023-02-19T08:15:26;36.33;;;23.77;;
37943;SDS011;23767;42.024;23.086;2023-02-19T08:17:52;33.70;;;23.42;;
37943;SDS011;23767;42.024;23.086;2023-02-19T08:20:18;38.58;;;23.67;;
37943;SDS011;23767;42.024;23.086;2023-02-19T08:22:44;30.65;;;21.38;;
37943;SDS011;23767;42.024;23.086;2023-02-19T08:25:10;30.92;;;19.92;;
37943;SDS011;23767;42.024;23.086;2023-02-19T08:27:37;32.28;;;21.33;;
37943;SDS011;23767;42.024;23.086;2023-02-19T08:30:03;27.95;;;19.92;;
37943;SDS011;23767;42.024;23.086;2023-02-19T08:32:29;30.25;;;20.33;;
37943;SDS011;23767;42.024;23.086;2023-02-19T08:34:55;29.95;;;20.50;;
37943;SDS011;23767;42.024;23.086;2023-02-19T08:37:21;29.65;;;18.08;;
37943;SDS011;23767;42.024;23.086;2023-02-19T08:39:47;30.20;;;18.85;;
37943;SDS011;23767;42.024;23.086;2023-02-19T08:42:13;33.17;;;20.40;;
37943;SDS011;23767;42.024;23.086;2023-02-19T08:44:39;28.77;;;20.10;;
37943;SDS011;23767;42.024;23.086;2023-02-19T08:47:05;32.42;;;20.92;;
37943;SDS011;23767;42.024;23.086;2023-02-19T08:49:32;38.15;;;21.08;;
37943;SDS011;23767;42.024;23.086;2023-02-19T08:51:58;31.27;;;20.45;;
37943;SDS011;23767;42.024;23.086;2023-02-19T08:54:24;27.63;;;20.70;;
37943;SDS011;23767;42.024;23.086;2023-02-19T08:56:50;27.33;;;20.27;;
37943;SDS011;23767;42.024;23.086;2023-02-19T08:59:16;26.85;;;20.27;;
37943;SDS011;23767;42.024;23.086;2023-02-19T09:01:44;25.42;;;18.80;;
37943;SDS011;23767;42.024;23.086;2023-02-19T09:04:13;27.23;;;18.73;;
37943;SDS011;23767;42.024;23.086;2023-02-19T09:06:39;31.65;;;21.92;;
37943;SDS011;23767;42.024;23.086;2023-02-19T09:09:05;31.63;;;21.27;;
37943;SDS011;23767;42.024;23.086;2023-02-19T09:11:31;32.50;;;21.10;;
37943;SDS011;23767;42.024;23.086;2023-02-19T09:13:57;35.17;;;21.92;;
37943;SDS011;23767;42.024;23.086;2023-02-19T09:16:23;27.80;;;20.48;;
37943;SDS011;23767;42.024;23.086;2023-02-19T09:18:49;30.90;;;21.17;;
37943;SDS011;23767;42.024;23.086;2023-02-19T09:21:15;27.05;;;19.90;;
37943;SDS011;23767;42.024;23.086;2023-02-19T09:23:41;33.08;;;20.45;;
37943;SDS011;23767;42.024;23.086;2023-02-19T09:26:08;29.75;;;19.55;;
37943;SDS011;23767;42.024;23.086;2023-02-19T09:28:35;27.70;;;19.98;;
37943;SDS011;23767;42.024;23.086;2023-02-19T09:31:04;28.27;;;20.23;;
37943;SDS011;23767;42.024;23.086;2023-02-19T09:33:30;28.85;;;20.77;;
37943;SDS011;23767;42.024;23.086;2023-02-19T09:35:59;31.90;;;19.50;;
37943;SDS011;23767;42.024;23.086;2023-02-19T09:38:26;25.23;;;18.50;;
37943;SDS011;23767;42.024;23.086;2023-02-19T09:40:53;28.40;;;20.10;;
37943;SDS011;23767;42.024;23.086;2023-02-19T09:43:21;27.88;;;18.63;;
37943;SDS011;23767;42.024;23.086;2023-02-19T09:45:49;23.90;;;17.10;;
37943;SDS011;23767;42.024;23.086;2023-02-19T09:48:18;22.98;;;16.75;;
37943;SDS011;23767;42.024;23.086;2023-02-19T09:50:46;23.00;;;16.70;;
37943;SDS011;23767;42.024;23.086;2023-02-19T09:53:19;24.75;;;16.08;;
37943;SDS011;23767;42.024;23.086;2023-02-19T09:55:46;21.83;;;15.65;;
37943;SDS011;23767;42.024;23.086;2023-02-19T10:00:51;22.45;;;15.90;;
37943;SDS011;23767;42.024;23.086;2023-02-19T10:03:25;21.98;;;14.40;;
37943;SDS011;23767;42.024;23.086;2023-02-19T10:05:58;20.77;;;13.48;;
37943;SDS011;23767;42.024;23.086;2023-02-19T10:08:26;18.73;;;11.45;;
37943;SDS011;23767;42.024;23.086;2023-02-19T10:10:52;19.50;;;11.15;;
37943;SDS011;23767;42.024;23.086;2023-02-19T10:13:22;16.02;;;10.15;;
37943;SDS011;23767;42.024;23.086;2023-02-19T10:15:49;12.35;;;8.07;;
37943;SDS011;23767;42.024;23.086;2023-02-19T10:18:17;18.17;;;10.30;;
37943;SDS011;23767;42.024;23.086;2023-02-19T10:20:44;16.77;;;10.07;;
37943;SDS011;23767;42.024;23.086;2023-02-19T10:23:11;17.08;;;9.90;;
37943;SDS011;23767;42.024;23.086;2023-02-19T10:25:40;14.07;;;9.43;;
37943;SDS011;23767;42.024;23.086;2023-02-19T10:28:17;21.83;;;9.70;;
37943;SDS011;23767;42.024;23.086;2023-02-19T10:30:53;15.10;;;8.65;;
37943;SDS011;23767;42.024;23.086;2023-02-19T10:33:20;15.52;;;9.35;;
37943;SDS011;23767;42.024;23.086;2023-02-19T10:35:57;13.52;;;9.13;;
37943;SDS011;23767;42.024;23.086;2023-02-19T10:38:33;14.43;;;9.60;;
37943;SDS011;23767;42.024;23.086;2023-02-19T10:41:10;14.52;;;9.65;;
37943;SDS011;23767;42.024;23.086;2023-02-19T10:43:41;12.07;;;8.60;;
37943;SDS011;23767;42.024;23.086;2023-02-19T10:46:18;13.65;;;8.55;;
37943;SDS011;23767;42.024;23.086;2023-02-19T10:48:55;14.30;;;9.00;;
37943;SDS011;23767;42.024;23.086;2023-02-19T10:51:29;16.88;;;8.75;;
37943;SDS011;23767;42.024;23.086;2023-02-19T10:54:06;17.98;;;9.45;;
37943;SDS011;23767;42.024;23.086;2023-02-19T10:56:33;13.82;;;8.38;;
37943;SDS011;23767;42.024;23.086;2023-02-19T11:04:26;13.02;;;8.07;;
37943;SDS011;23767;42.024;23.086;2023-02-19T11:06:53;14.38;;;7.32;;
37943;SDS011;23767;42.024;23.086;2023-02-19T11:09:25;14.85;;;8.43;;
37943;SDS011;23767;42.024;23.086;2023-02-19T11:11:53;11.88;;;6.78;;
37943;SDS011;23767;42.024;23.086;2023-02-19T11:14:20;7.70;;;4.38;;
37943;SDS011;23767;42.024;23.086;2023-02-19T11:16:48;8.00;;;4.53;;
37943;SDS011;23767;42.024;23.086;2023-02-19T11:19:49;8.82;;;5.00;;
37943;SDS011;23767;42.024;23.086;2023-02-19T11:24:52;6.78;;;4.35;;
37943;SDS011;23767;42.024;23.086;2023-02-19T11:27:22;8.50;;;4.40;;
37943;SDS011;23767;42.024;23.086;2023-02-19T11:29:48;9.45;;;4.60;;
37943;SDS011;23767;42.024;23.086;2023-02-19T11:32:22;12.43;;;4.88;;
37943;SDS011;23767;42.024;23.086;2023-02-19T11:34:49;8.48;;;4.63;;
37943;SDS011;23767;42.024;23.086;2023-02-19T11:37:16;7.88;;;4.93;;
37943;SDS011;23767;42.024;23.086;2023-02-19T11:39:44;11.27;;;5.85;;
37943;SDS011;23767;42.024;23.086;2023-02-19T11:52:32;8.52;;;3.97;;
37943;SDS011;23767;42.024;23.086;2023-02-19T11:55:22;9.10;;;4.80;;
37943;SDS011;23767;42.024;23.086;2023-02-19T11:57:53;8.00;;;4.50;;
37943;SDS011;23767;42.024;23.086;2023-02-19T12:00:24;7.63;;;4.47;;
37943;SDS011;23767;42.024;23.086;2023-02-19T12:12:49;9.25;;;3.97;;
37943;SDS011;23767;42.024;23.086;2023-02-19T12:23:20;7.82;;;4.40;;
37943;SDS011;23767;42.024;23.086;2023-02-19T12:36:57;6.05;;;3.20;;
37943;SDS011;23767;42.024;23.086;2023-02-19T12:44:49;7.97;;;3.50;;
37943;SDS011;23767;42.024;23.086;2023-02-19T12:47:20;7.70;;;3.37;;
37943;SDS011;23767;42.024;23.086;2023-02-19T12:54:41;6.28;;;3.42;;
37943;SDS011;23767;42.024;23.086;2023-02-19T12:57:19;6.72;;;3.65;;
37943;SDS011;23767;42.024;23.086;2023-02-19T13:02:14;4.90;;;2.90;;
37943;SDS011;23767;42.024;23.086;2023-02-19T13:09:44;6.05;;;3.20;;
37943;SDS011;23767;42.024;23.086;2023-02-19T13:12:25;5.65;;;3.35;;
37943;SDS011;23767;42.024;23.086;2023-02-19T13:15:00;7.15;;;3.47;;
37943;SDS011;23767;42.024;23.086;2023-02-19T13:17:30;7.45;;;3.67;;
37943;SDS011;23767;42.024;23.086;2023-02-19T13:20:13;7.63;;;3.75;;
37943;SDS011;23767;42.024;23.086;2023-02-19T13:22:57;6.38;;;3.88;;
37943;SDS011;23767;42.024;23.086;2023-02-19T13:38:41;6.60;;;3.15;;
37943;SDS011;23767;42.024;23.086;2023-02-19T13:41:17;6.88;;;3.22;;
37943;SDS011;23767;42.024;23.086;2023-02-19T13:43:44;7.68;;;3.83;;
37943;SDS011;23767;42.024;23.086;2023-02-19T13:46:11;6.55;;;3.10;;
37943;SDS011;23767;42.024;23.086;2023-02-19T13:48:39;6.15;;;3.17;;
37943;SDS011;23767;42.024;23.086;2023-02-19T13:51:37;6.22;;;3.20;;
37943;SDS011;23767;42.024;23.086;2023-02-19T13:53:59;7.43;;;3.63;;
37943;SDS011;23767;42.024;23.086;2023-02-19T14:04:21;8.75;;;3.25;;
37943;SDS011;23767;42.024;23.086;2023-02-19T14:24:31;7.90;;;3.55;;
37943;SDS011;23767;42.024;23.086;2023-02-19T14:26:58;6.60;;;3.80;;
37943;SDS011;23767;42.024;23.086;2023-02-19T14:29:24;7.32;;;3.70;;
37943;SDS011;23767;42.024;23.086;2023-02-19T14:31:52;7.43;;;3.60;;
37943;SDS011;23767;42.024;23.086;2023-02-19T14:34:21;8.15;;;3.95;;
37943;SDS011;23767;42.024;23.086;2023-02-19T14:36:54;7.93;;;3.58;;
37943;SDS011;23767;42.024;23.086;2023-02-19T14:39:29;8.60;;;4.03;;
37943;SDS011;23767;42.024;23.086;2023-02-19T14:42:00;6.95;;;3.42;;
37943;SDS011;23767;42.024;23.086;2023-02-19T14:44:33;6.60;;;3.53;;
37943;SDS011;23767;42.024;23.086;2023-02-19T14:47:33;10.40;;;5.57;;
37943;SDS011;23767;42.024;23.086;2023-02-19T14:52:54;8.25;;;5.00;;
37943;SDS011;23767;42.024;23.086;2023-02-19T14:55:35;7.60;;;4.10;;
37943;SDS011;23767;42.024;23.086;2023-02-19T14:58:03;15.65;;;4.32;;
37943;SDS011;23767;42.024;23.086;2023-02-19T15:00:35;8.70;;;3.88;;
37943;SDS011;23767;42.024;23.086;2023-02-19T15:03:01;10.30;;;4.30;;
37943;SDS011;23767;42.024;23.086;2023-02-19T15:07:55;9.98;;;5.65;;
37943;SDS011;23767;42.024;23.086;2023-02-19T15:10:22;12.07;;;6.65;;
37943;SDS011;23767;42.024;23.086;2023-02-19T15:12:55;10.35;;;5.30;;
37943;SDS011;23767;42.024;23.086;2023-02-19T15:15:23;9.63;;;5.30;;
37943;SDS011;23767;42.024;23.086;2023-02-19T15:17:51;8.27;;;4.50;;
37943;SDS011;23767;42.024;23.086;2023-02-19T15:20:28;9.63;;;5.35;;
37943;SDS011;23767;42.024;23.086;2023-02-19T15:22:55;10.80;;;6.45;;
37943;SDS011;23767;42.024;23.086;2023-02-19T15:25:23;10.38;;;6.10;;
37943;SDS011;23767;42.024;23.086;2023-02-19T15:27:49;8.68;;;5.55;;
37943;SDS011;23767;42.024;23.086;2023-02-19T15:30:20;9.60;;;6.45;;
37943;SDS011;23767;42.024;23.086;2023-02-19T15:37:45;17.73;;;10.30;;
37943;SDS011;23767;42.024;23.086;2023-02-19T15:40:11;15.98;;;10.35;;
37943;SDS011;23767;42.024;23.086;2023-02-19T15:42:38;19.40;;;12.00;;
37943;SDS011;23767;42.024;23.086;2023-02-19T15:47:42;11.15;;;7.35;;
37943;SDS011;23767;42.024;23.086;2023-02-19T15:50:13;11.45;;;6.65;;
37943;SDS011;23767;42.024;23.086;2023-02-19T15:55:17;10.07;;;7.13;;
37943;SDS011;23767;42.024;23.086;2023-02-19T15:57:49;12.90;;;7.30;;
37943;SDS011;23767;42.024;23.086;2023-02-19T16:00:18;14.23;;;8.57;;
37943;SDS011;23767;42.024;23.086;2023-02-19T16:02:45;16.13;;;10.02;;
37943;SDS011;23767;42.024;23.086;2023-02-19T16:05:22;21.15;;;12.98;;
37943;SDS011;23767;42.024;23.086;2023-02-19T16:08:05;17.40;;;13.10;;
37943;SDS011;23767;42.024;23.086;2023-02-19T16:10:32;17.40;;;11.25;;
37943;SDS011;23767;42.024;23.086;2023-02-19T16:12:58;21.45;;;15.35;;
37943;SDS011;23767;42.024;23.086;2023-02-19T16:15:26;27.00;;;18.70;;
37943;SDS011;23767;42.024;23.086;2023-02-19T16:17:52;60.75;;;32.65;;
37943;SDS011;23767;42.024;23.086;2023-02-19T16:20:20;42.70;;;24.17;;
37943;SDS011;23767;42.024;23.086;2023-02-19T16:22:47;21.98;;;12.02;;
37943;SDS011;23767;42.024;23.086;2023-02-19T16:25:32;23.42;;;12.05;;
37943;SDS011;23767;42.024;23.086;2023-02-19T16:28:08;21.65;;;13.15;;
37943;SDS011;23767;42.024;23.086;2023-02-19T16:30:35;20.92;;;12.60;;
37943;SDS011;23767;42.024;23.086;2023-02-19T16:35:46;20.00;;;12.60;;
37943;SDS011;23767;42.024;23.086;2023-02-19T16:38:17;19.35;;;11.88;;
37943;SDS011;23767;42.024;23.086;2023-02-19T16:45:42;11.95;;;6.97;;
37943;SDS011;23767;42.024;23.086;2023-02-19T16:48:08;13.30;;;7.03;;
37943;SDS011;23767;42.024;23.086;2023-02-19T16:50:35;12.80;;;8.70;;
37943;SDS011;23767;42.024;23.086;2023-02-19T16:53:02;13.45;;;8.63;;
37943;SDS011;23767;42.024;23.086;2023-02-19T16:55:29;9.20;;;5.97;;
37943;SDS011;23767;42.024;23.086;2023-02-19T16:58:04;9.50;;;6.13;;
37943;SDS011;23767;42.024;23.086;2023-02-19T17:00:30;9.68;;;5.88;;